createdAt,value
2023-09-14T00:04:24.050Z,98604.13
2023-09-14T00:07:03.948Z,98597.00
2023-09-14T00:09:37.144Z,98607.88
2023-09-14T00:12:12.941Z,98604.47
2023-09-14T00:14:46.202Z,98604.47
2023-09-14T00:17:20.169Z,98601.94
2023-09-14T00:30:31.956Z,98622.50
2023-09-14T00:36:51.917Z,98633.72
2023-09-14T00:39:25.168Z,98635.09
2023-09-14T00:41:58.906Z,98634.44
2023-09-14T00:44:32.248Z,98632.09
2023-09-14T00:57:22.891Z,98640.44
2023-09-14T01:00:02.977Z,98644.34
2023-09-14T01:02:36.968Z,98646.41
2023-09-14T01:05:12.923Z,98641.97
2023-09-14T01:07:46.262Z,98641.28
2023-09-14T01:10:19.904Z,98656.75
2023-09-14T01:23:42.907Z,98669.53
2023-09-14T01:26:19.129Z,98668.88
2023-09-14T01:28:52.905Z,98679.72
2023-09-14T01:31:26.154Z,98679.38
2023-09-14T01:33:59.978Z,98670.72
2023-09-14T01:36:43.681Z,98675.69
2023-09-14T01:50:07.897Z,98690.59
2023-09-14T01:52:47.921Z,98688.91
2023-09-14T01:55:21.275Z,98696.53
2023-09-14T01:57:54.985Z,98695.00
2023-09-14T02:00:28.280Z,98699.94
2023-09-14T02:03:01.966Z,98700.09
2023-09-14T02:05:37.310Z,98705.34
2023-09-14T02:18:25.914Z,98699.09
2023-09-14T02:21:08.993Z,98708.25
2023-09-14T02:23:42.187Z,98702.13
2023-09-14T02:26:15.976Z,98702.31
2023-09-14T02:28:49.242Z,98710.63
2023-09-14T02:31:22.951Z,98706.72
2023-09-14T02:44:35.930Z,98716.72
2023-09-14T02:47:09.193Z,98719.75
2023-09-14T02:49:42.934Z,98721.78
2023-09-14T02:52:16.197Z,98730.25
2023-09-14T02:54:49.969Z,98737.03
2023-09-14T03:11:26.901Z,98742.25
2023-09-14T03:14:06.915Z,98754.94
2023-09-14T03:16:40.469Z,98759.53
2023-09-14T03:19:13.925Z,98753.28
2023-09-14T03:21:47.404Z,98757.00
2023-09-14T03:24:21.994Z,98763.56
2023-09-14T03:37:33.955Z,98765.72
2023-09-14T03:40:09.187Z,98773.16
2023-09-14T03:42:43.960Z,98778.91
2023-09-14T03:45:17.281Z,98781.78
2023-09-14T03:47:50.967Z,98786.34
2023-09-14T03:50:24.354Z,98780.94
2023-09-14T04:03:51.982Z,98794.47
2023-09-14T04:06:33.934Z,98792.75
2023-09-14T04:09:07.770Z,98801.06
2023-09-14T04:11:41.925Z,98804.78
2023-09-14T04:14:15.167Z,98802.19
2023-09-14T04:16:49.055Z,98810.50
2023-09-14T04:19:24.681Z,98809.66
2023-09-14T04:32:13.893Z,98826.19
2023-09-14T04:34:55.950Z,98823.78
2023-09-14T04:37:29.237Z,98824.97
2023-09-14T04:40:02.970Z,98831.56
2023-09-14T04:42:36.627Z,98836.44
2023-09-14T04:45:11.918Z,98837.59
2023-09-14T04:58:26.499Z,98847.72
2023-09-14T05:01:00.544Z,98850.72
2023-09-14T05:03:34.989Z,98856.13
2023-09-14T05:06:09.603Z,98853.41
2023-09-14T05:08:42.952Z,98854.44
2023-09-14T05:11:16.370Z,98866.13
2023-09-14T05:24:06.894Z,98871.97
2023-09-14T05:26:47.934Z,98868.56
2023-09-14T05:29:21.307Z,98876.00
2023-09-14T05:31:58.145Z,98876.31
2023-09-14T05:34:31.670Z,98879.47
2023-09-14T05:37:04.956Z,98876.94
2023-09-14T05:39:40.192Z,98880.63
2023-09-14T05:52:28.909Z,98883.13
2023-09-14T05:55:11.993Z,98886.13
2023-09-14T05:57:46.365Z,98886.63
2023-09-14T06:00:20.938Z,98885.03
2023-09-14T06:02:56.661Z,98894.19
2023-09-14T06:05:30.131Z,98891.63
2023-09-14T06:18:42.015Z,98919.00
2023-09-14T06:21:15.193Z,98917.28
2023-09-14T06:23:48.941Z,98913.75
2023-09-14T06:26:22.434Z,98919.28
2023-09-14T06:28:57.266Z,98923.72
2023-09-14T06:31:33.201Z,98926.56
2023-09-14T06:44:23.919Z,98929.88
2023-09-14T06:47:03.975Z,98930.19
2023-09-14T06:49:37.178Z,98935.75
2023-09-14T06:52:12.010Z,98942.03
2023-09-14T06:54:46.626Z,98940.47
2023-09-14T06:57:19.918Z,98948.59
2023-09-14T06:59:55.259Z,98946.91
2023-09-14T07:12:43.944Z,98966.44
2023-09-14T07:15:25.939Z,98967.44
2023-09-14T07:17:59.202Z,98986.38
2023-09-14T07:20:32.950Z,98983.81
2023-09-14T07:23:06.283Z,98988.34
2023-09-14T07:25:39.966Z,98989.34
2023-09-14T07:38:52.978Z,98997.47
2023-09-14T07:41:26.460Z,98994.75
2023-09-14T07:43:59.957Z,98997.47
2023-09-14T07:46:33.408Z,99000.88
2023-09-14T07:49:07.950Z,98999.16
2023-09-14T07:51:41.304Z,98995.78
2023-09-14T08:04:36.075Z,99011.59
2023-09-14T08:07:15.956Z,99008.88
2023-09-14T08:09:49.229Z,99017.88
2023-09-14T08:12:22.950Z,99025.09
2023-09-14T08:14:56.195Z,99013.72
2023-09-14T08:20:07.569Z,99012.06
2023-09-14T08:33:02.924Z,99023.00
2023-09-14T08:35:45.988Z,99024.88
2023-09-14T08:38:21.778Z,99029.44
2023-09-14T08:41:02.006Z,99028.56
2023-09-14T08:43:36.755Z,99031.38
2023-09-14T08:46:13.996Z,99035.09
2023-09-14T08:59:28.138Z,99048.59
2023-09-14T09:02:02.842Z,99047.63
2023-09-14T09:04:37.039Z,99054.75
2023-09-14T09:07:10.759Z,99050.31
2023-09-14T09:09:44.008Z,99043.94
2023-09-14T09:26:20.918Z,99037.63
2023-09-14T09:29:00.951Z,99026.53
2023-09-14T09:31:43.058Z,99027.09
2023-09-14T09:34:30.968Z,99033.06
2023-09-14T09:37:04.738Z,99033.56
2023-09-14T09:39:42.980Z,99036.16
2023-09-14T09:52:56.242Z,99036.84
2023-09-14T09:55:30.518Z,99040.66
2023-09-14T09:58:05.963Z,99044.75
2023-09-14T10:00:39.231Z,99045.28
2023-09-14T10:03:14.028Z,99043.13
2023-09-14T10:05:47.530Z,99043.53
2023-09-14T10:18:44.976Z,99034.91
2023-09-14T10:21:27.024Z,99044.59
2023-09-14T10:24:01.938Z,99046.28
2023-09-14T10:26:37.956Z,99043.41
2023-09-14T10:29:11.245Z,99038.00
2023-09-14T10:32:23.790Z,99033.28
2023-09-14T10:45:55.005Z,99040.03
2023-09-14T10:48:30.682Z,99036.44
2023-09-14T10:51:05.982Z,99040.19
2023-09-14T10:53:41.364Z,99039.84
2023-09-14T10:56:26.957Z,99040.72
2023-09-14T10:59:05.467Z,99037.84
2023-09-14T11:01:55.713Z,99035.53
2023-09-14T11:11:57.539Z,99022.91
2023-09-14T11:14:40.037Z,99016.88
2023-09-14T11:17:21.943Z,99015.25
2023-09-14T11:20:02.391Z,99021.34
2023-09-14T11:22:38.275Z,99018.19
2023-09-14T11:25:28.226Z,99025.13
2023-09-14T11:38:43.587Z,99027.50
2023-09-14T11:41:38.781Z,99027.50
2023-09-14T11:47:03.544Z,99025.16
2023-09-14T11:49:48.976Z,99024.84
2023-09-14T12:06:31.958Z,99026.44
2023-09-14T12:09:30.584Z,99032.38
2023-09-14T12:12:06.823Z,99032.06
2023-09-14T12:14:45.257Z,99034.44
2023-09-14T12:17:21.491Z,99025.16
2023-09-14T12:20:01.893Z,99021.94
2023-09-14T12:33:15.645Z,99019.69
2023-09-14T12:35:49.342Z,99023.94
2023-09-14T12:38:25.124Z,99013.59
2023-09-14T12:41:01.315Z,99015.81
2023-09-14T12:43:36.018Z,99013.47
2023-09-14T12:46:09.500Z,99014.66
2023-09-14T12:58:59.942Z,98994.69
2023-09-14T13:01:40.993Z,99005.88
2023-09-14T13:04:15.452Z,99001.50
2023-09-14T13:06:49.985Z,98990.47
2023-09-14T13:09:24.544Z,98999.47
2023-09-14T13:12:00.130Z,99001.16
2023-09-14T13:25:38.970Z,98993.06
2023-09-14T13:28:12.370Z,98992.09
2023-09-14T13:30:46.017Z,98996.22
2023-09-14T13:33:19.194Z,98988.13
2023-09-14T13:35:53.971Z,98984.25
2023-09-14T13:38:29.687Z,98988.53
2023-09-14T13:41:04.976Z,98989.91
2023-09-14T13:54:14.998Z,98979.44
2023-09-14T13:56:50.184Z,98980.28
2023-09-14T13:59:23.973Z,98981.13
2023-09-14T14:01:57.383Z,98977.38
2023-09-14T14:04:31.229Z,98988.56
2023-09-14T14:07:04.670Z,98985.19
2023-09-14T14:19:54.949Z,98985.66
2023-09-14T14:22:34.997Z,98980.41
2023-09-14T14:25:09.103Z,98980.72
2023-09-14T14:27:44.042Z,98977.19
2023-09-14T14:30:17.217Z,98977.50
2023-09-14T14:46:33.021Z,98986.28
2023-09-14T14:49:06.579Z,98983.03
2023-09-14T14:51:40.014Z,98990.53
2023-09-14T14:54:13.347Z,98979.66
2023-09-14T14:56:55.008Z,98980.69
2023-09-14T14:59:28.195Z,98980.69
2023-09-14T15:02:04.051Z,98988.81
2023-09-14T15:12:35.001Z,98978.69
2023-09-14T15:15:16.979Z,98980.06
2023-09-14T15:17:52.467Z,98978.03
2023-09-14T15:20:25.989Z,98985.56
2023-09-14T15:22:59.212Z,98983.00
2023-09-14T15:25:32.989Z,98990.28
2023-09-14T15:39:22.996Z,98982.81
2023-09-14T15:41:56.215Z,98984.53
2023-09-14T15:44:29.961Z,98993.38
2023-09-14T15:47:03.880Z,98981.31
2023-09-14T15:49:36.982Z,98988.22
2023-09-14T15:52:10.492Z,98984.16
2023-09-14T15:54:45.984Z,98987.56
2023-09-14T15:57:19.221Z,98989.94
2023-09-14T16:06:43.015Z,98991.09
2023-09-14T16:09:16.278Z,98986.84
2023-09-14T16:11:52.462Z,98988.03
2023-09-14T16:14:26.254Z,98992.63
2023-09-14T16:16:59.968Z,98996.34
2023-09-14T16:19:33.295Z,98990.25
2023-09-14T16:22:07.010Z,98987.69
2023-09-14T16:37:49.364Z,99000.75
2023-09-14T16:40:16.528Z,98991.25
2023-09-14T16:42:57.041Z,98998.00
2023-09-14T16:45:30.234Z,98987.81
2023-09-14T17:01:46.017Z,99010.13
2023-09-14T17:04:19.219Z,99003.31
2023-09-14T17:06:54.052Z,99003.63
2023-09-14T17:09:27.436Z,99006.84
2023-09-14T17:12:01.506Z,99007.31
2023-09-14T17:14:35.210Z,99010.38
2023-09-14T17:17:11.021Z,99003.56
2023-09-14T17:26:55.985Z,99005.50
2023-09-14T17:29:36.010Z,99006.16
2023-09-14T17:32:11.830Z,99017.13
2023-09-14T17:34:44.976Z,99013.91
2023-09-14T17:37:18.289Z,99024.25
2023-09-14T17:39:52.001Z,99019.28
2023-09-14T17:42:25.347Z,99024.00
2023-09-14T17:55:15.988Z,99028.41
2023-09-14T17:57:56.084Z,99026.22
2023-09-14T18:00:29.235Z,99030.22
2023-09-14T18:03:03.037Z,99028.69
2023-09-14T18:05:36.364Z,99029.16
2023-09-14T18:21:52.023Z,99046.28
2023-09-14T18:24:25.225Z,99045.59
2023-09-14T18:26:59.000Z,99046.75
2023-09-14T18:29:33.830Z,99047.88
2023-09-14T18:32:06.985Z,99038.22
2023-09-14T18:34:40.469Z,99039.38
2023-09-14T18:37:15.984Z,99050.53
2023-09-14T18:47:00.995Z,99045.19
2023-09-14T18:49:40.992Z,99058.91
2023-09-14T18:52:22.520Z,99050.34
2023-09-14T18:55:03.012Z,99054.09
2023-09-14T18:57:36.605Z,99058.06
2023-09-14T19:00:12.025Z,99059.22
2023-09-14T19:13:27.042Z,99072.75
2023-09-14T19:16:00.393Z,99064.91
2023-09-14T19:18:34.500Z,99068.78
2023-09-14T19:21:08.422Z,99070.91
2023-09-14T19:23:42.011Z,99070.22
2023-09-14T19:26:15.323Z,99075.94
2023-09-14T19:42:30.990Z,99077.72
2023-09-14T19:45:06.188Z,99080.59
2023-09-14T19:47:40.031Z,99085.44
2023-09-14T19:50:13.508Z,99073.06
2023-09-14T19:52:47.002Z,99087.75
2023-09-14T19:55:20.273Z,99082.63
2023-09-14T20:08:15.967Z,99088.44
2023-09-14T20:10:56.008Z,99084.06
2023-09-14T20:13:38.517Z,99083.50
2023-09-14T20:16:19.128Z,99079.25
2023-09-14T20:18:53.732Z,99085.66
2023-09-14T20:21:27.239Z,99077.81
2023-09-14T20:34:39.062Z,99072.88
2023-09-14T20:37:12.258Z,99074.88
2023-09-14T20:39:46.022Z,99075.88
2023-09-14T20:42:19.467Z,99076.16
2023-09-14T20:44:53.051Z,99071.03
2023-09-14T20:47:26.252Z,99070.31
2023-09-14T21:00:28.999Z,99078.44
2023-09-14T21:03:09.096Z,99087.69
2023-09-14T21:05:43.233Z,99082.44
2023-09-14T21:08:16.992Z,99089.81
2023-09-14T21:10:50.242Z,99084.88
2023-09-14T21:13:30.011Z,99082.44
2023-09-14T21:16:05.627Z,99086.13
2023-09-14T21:28:53.967Z,99088.97
2023-09-14T21:31:36.069Z,99084.72
2023-09-14T21:34:09.317Z,99085.84
2023-09-14T21:36:43.060Z,99082.44
2023-09-14T21:39:16.262Z,99081.72
2023-09-14T21:41:50.007Z,99080.16
2023-09-14T21:55:02.038Z,99085.53
2023-09-14T21:57:35.237Z,99084.09
2023-09-14T22:00:09.993Z,99089.78
2023-09-14T22:02:43.358Z,99087.22
2023-09-14T22:05:17.029Z,99086.34
2023-09-14T22:21:53.973Z,99083.94
2023-09-14T22:24:34.036Z,99075.25
2023-09-14T22:27:07.246Z,99076.41
2023-09-14T22:29:42.307Z,99082.91
2023-09-14T22:32:16.264Z,99086.88
2023-09-14T22:34:50.018Z,99085.16
2023-09-14T22:37:32.194Z,99085.31
2023-09-14T22:47:26.990Z,99087.72
2023-09-14T22:50:00.262Z,99092.38
2023-09-14T22:52:36.041Z,99092.53
2023-09-14T22:55:10.160Z,99088.25
2023-09-14T22:57:44.010Z,99096.34
2023-09-14T23:00:17.421Z,99097.47
2023-09-14T23:16:33.081Z,99088.47
2023-09-14T23:19:06.340Z,99082.50
2023-09-14T23:21:41.021Z,99090.59
2023-09-14T23:24:14.635Z,99090.75
2023-09-14T23:26:48.007Z,99090.88
2023-09-14T23:43:24.977Z,99091.78
2023-09-14T23:46:06.092Z,99085.81
2023-09-14T23:48:39.450Z,99088.66
2023-09-14T23:51:12.997Z,99084.38
2023-09-14T23:53:46.253Z,99080.97
2023-09-14T23:56:20.018Z,99084.63
